首页
METAR-TAF:

METAR-TAF

机场 :

西安咸阳国际机场

西安, 中华人民共和国

纬度: 34-26N, 经度: 108-45E, 海拔: 479米

当前天气观测

该预报发布于57分钟前的19:00 UTC
静风
温度 19°C
湿度 60%
气压 1004 hPa
能见度10公里或以上
1500米以下无云,无积雨云

METAR: ZLXY 231900Z 00000MPS CAVOK 19/11 Q1004 NOSIG

时间: 03:57 (19:57 UTC)

预报

该预报发布于4小时和44分钟前的15:13 UTC
预报有效从23日的 18点(UTC)到 24日的 18点(UTC)
风速6节,风向西南
能見度: 3000

TAF: ZLXY 231513Z 2318/2418 23003MPS 3000 HZ NSC TX35/2407Z TN19/2322Z

超过4000个机场的气象观测和天气预报(METAR&TAF报告)。

可查询的气象台以黄色和红色小点在地图上表示。

将鼠标移到小点上方,可查看气象台名称。

然后点击查看天气观测和预报。

如需切换地图:点击带黑十字的绿色按钮放大地图;点击带横线的绿色按钮缩小地图;或者点击绿色箭头查看邻近地区的地图。


METAR-TAF: